createdAt,value
2022-08-19T00:02:07.707Z,5.10
2022-08-19T00:04:40.944Z,5.15
2022-08-19T00:07:08.592Z,5.70
2022-08-19T00:09:59.402Z,4.40
2022-08-19T00:12:48.814Z,5.10
2022-08-19T00:15:21.857Z,5.57
2022-08-19T00:17:58.244Z,5.97
2022-08-19T00:20:30.990Z,5.78
2022-08-19T00:22:58.783Z,5.70
2022-08-19T00:25:29.934Z,5.35
2022-08-19T00:28:02.937Z,5.25
2022-08-19T00:30:35.733Z,5.40
2022-08-19T00:33:08.280Z,5.20
2022-08-19T00:35:40.533Z,5.75
2022-08-19T00:38:10.426Z,4.78
2022-08-19T00:40:41.874Z,4.53
2022-08-19T00:43:21.331Z,5.22
2022-08-19T00:45:52.958Z,5.30
2022-08-19T00:48:25.465Z,5.18
2022-08-19T00:50:56.556Z,5.40
2022-08-19T00:53:37.670Z,5.45
2022-08-19T00:56:08.321Z,5.03
2022-08-19T00:58:38.245Z,4.78
2022-08-19T01:01:09.225Z,4.30
2022-08-19T01:06:30.730Z,4.53
2022-08-19T01:09:02.452Z,4.68
2022-08-19T01:11:37.718Z,4.53
2022-08-19T01:14:09.698Z,4.70
2022-08-19T01:16:43.685Z,4.15
2022-08-19T01:19:28.953Z,4.20
2022-08-19T01:22:13.104Z,4.50
2022-08-19T01:24:49.729Z,4.15
2022-08-19T01:27:22.696Z,3.97
2022-08-19T01:29:54.797Z,4.10
2022-08-19T01:32:32.323Z,4.63
2022-08-19T01:35:06.957Z,4.07
2022-08-19T01:38:11.344Z,4.45
2022-08-19T01:40:43.399Z,3.78
2022-08-19T01:43:14.089Z,4.30
2022-08-19T01:45:46.596Z,3.67
2022-08-19T01:48:16.169Z,3.65
2022-08-19T01:50:45.151Z,3.63
2022-08-19T01:53:15.777Z,3.70
2022-08-19T01:55:46.812Z,4.05
2022-08-19T01:58:25.185Z,4.20
2022-08-19T02:00:52.762Z,4.18
2022-08-19T02:03:23.336Z,4.35
2022-08-19T02:06:05.745Z,4.53
2022-08-19T02:08:40.409Z,4.20
2022-08-19T02:11:12.085Z,4.85
2022-08-19T02:13:39.696Z,4.22
2022-08-19T02:16:13.408Z,4.43
2022-08-19T02:18:45.573Z,3.72
2022-08-19T02:21:17.909Z,3.90
2022-08-19T02:23:48.127Z,3.75
2022-08-19T02:26:19.700Z,4.10
2022-08-19T02:28:49.856Z,3.92
2022-08-19T02:31:22.551Z,4.10
2022-08-19T02:34:00.573Z,4.18
2022-08-19T02:36:30.851Z,4.60
2022-08-19T02:39:03.114Z,6.40
2022-08-19T02:41:37.481Z,5.10
2022-08-19T02:46:58.990Z,4.57
2022-08-19T02:49:34.798Z,5.43
2022-08-19T02:52:07.964Z,4.97
2022-08-19T02:54:38.339Z,4.93
2022-08-19T02:57:08.969Z,4.32
2022-08-19T02:59:37.254Z,5.07
2022-08-19T03:02:04.675Z,4.93
2022-08-19T03:04:37.216Z,4.80
2022-08-19T03:07:11.053Z,4.68
2022-08-19T03:09:43.329Z,5.20
2022-08-19T03:12:14.580Z,4.90
2022-08-19T03:14:45.109Z,5.13
2022-08-19T03:17:17.110Z,5.18
2022-08-19T03:19:46.911Z,4.93
2022-08-19T03:22:19.379Z,4.68
2022-08-19T03:24:51.957Z,4.72
2022-08-19T03:27:21.564Z,4.70
2022-08-19T03:29:52.004Z,5.18
2022-08-19T03:32:33.060Z,5.50
2022-08-19T03:35:02.737Z,4.85
2022-08-19T03:37:31.338Z,5.22
2022-08-19T03:40:02.326Z,4.65
2022-08-19T03:42:48.861Z,5.38
2022-08-19T03:45:23.292Z,4.72
2022-08-19T03:47:51.822Z,4.88
2022-08-19T03:50:21.455Z,5.25
2022-08-19T03:52:54.192Z,4.50
2022-08-19T03:55:26.148Z,4.80
2022-08-19T03:57:59.224Z,4.55
2022-08-19T04:00:32.408Z,4.70
2022-08-19T04:03:02.969Z,5.40
2022-08-19T04:05:34.053Z,4.50
2022-08-19T04:08:03.861Z,4.72
2022-08-19T04:10:40.702Z,5.00
2022-08-19T04:15:53.921Z,5.07
2022-08-19T04:18:26.133Z,5.43
2022-08-19T04:20:57.996Z,5.80
2022-08-19T04:23:29.242Z,5.57
2022-08-19T04:25:59.137Z,4.90
2022-08-19T04:28:32.221Z,5.75
2022-08-19T04:31:03.960Z,4.93
2022-08-19T04:33:36.070Z,5.40
2022-08-19T04:36:07.266Z,5.03
2022-08-19T04:38:40.448Z,5.25
2022-08-19T04:41:30.062Z,6.63
2022-08-19T04:44:04.135Z,5.47
2022-08-19T04:49:13.193Z,5.68
2022-08-19T04:51:49.227Z,5.50
2022-08-19T04:54:38.315Z,5.10
2022-08-19T04:57:14.617Z,5.03
2022-08-19T04:59:47.705Z,5.45
2022-08-19T05:02:16.914Z,4.82
2022-08-19T05:04:46.946Z,4.97
2022-08-19T05:07:18.104Z,4.82
2022-08-19T05:09:57.999Z,4.20
2022-08-19T05:12:32.229Z,5.03
2022-08-19T05:15:03.859Z,4.63
2022-08-19T05:17:38.389Z,4.47
2022-08-19T05:20:30.017Z,4.90
2022-08-19T05:23:00.254Z,4.28
2022-08-19T05:25:31.176Z,4.45
2022-08-19T05:28:00.710Z,4.55
2022-08-19T05:30:46.838Z,4.25
2022-08-19T05:33:19.188Z,4.68
2022-08-19T05:35:49.192Z,4.38
2022-08-19T05:38:21.148Z,4.57
2022-08-19T05:40:51.069Z,4.70
2022-08-19T05:43:22.438Z,5.18
2022-08-19T05:45:53.917Z,4.88
2022-08-19T05:48:24.301Z,3.95
2022-08-19T05:50:54.092Z,4.13
2022-08-19T05:53:26.508Z,4.20
2022-08-19T05:55:55.997Z,4.88
2022-08-19T05:58:32.287Z,4.78
2022-08-19T06:01:14.495Z,4.45
2022-08-19T06:03:46.616Z,3.55
2022-08-19T06:06:16.058Z,3.90
2022-08-19T06:08:52.142Z,3.90
2022-08-19T06:11:26.574Z,3.53
2022-08-19T06:14:00.463Z,3.70
2022-08-19T06:16:31.366Z,3.53
2022-08-19T06:19:02.008Z,3.47
2022-08-19T06:21:38.165Z,3.67
2022-08-19T06:24:12.953Z,3.95
2022-08-19T06:29:23.399Z,3.42
2022-08-19T06:32:06.771Z,4.20
2022-08-19T06:34:39.814Z,3.67
2022-08-19T06:37:08.841Z,3.30
2022-08-19T06:39:42.555Z,3.45
2022-08-19T06:42:24.020Z,3.25
2022-08-19T06:44:54.012Z,3.30
2022-08-19T06:47:28.984Z,3.38
2022-08-19T06:50:16.711Z,3.58
2022-08-19T06:52:48.883Z,2.97
2022-08-19T06:55:24.215Z,3.40
2022-08-19T06:57:54.892Z,2.75
2022-08-19T07:00:24.106Z,3.30
2022-08-19T07:03:00.203Z,3.65
2022-08-19T07:05:33.316Z,3.47
2022-08-19T07:08:05.095Z,3.22
2022-08-19T07:10:36.497Z,3.88
2022-08-19T07:13:33.212Z,3.60
2022-08-19T07:16:14.678Z,3.05
2022-08-19T07:18:52.997Z,3.47
2022-08-19T07:21:29.604Z,3.30
2022-08-19T07:24:05.361Z,3.55
2022-08-19T07:26:42.403Z,3.30
2022-08-19T07:29:17.520Z,3.22
2022-08-19T07:31:45.966Z,3.00
2022-08-19T07:34:18.465Z,3.85
2022-08-19T07:36:51.343Z,3.53
2022-08-19T07:39:29.199Z,3.03
2022-08-19T07:42:04.440Z,3.08
2022-08-19T07:44:32.234Z,3.20
2022-08-19T07:47:06.629Z,3.28
2022-08-19T07:49:36.417Z,3.47
2022-08-19T07:52:09.917Z,3.47
2022-08-19T07:54:41.889Z,3.97
2022-08-19T07:57:10.253Z,3.80
2022-08-19T07:59:42.637Z,3.60
2022-08-19T08:02:14.345Z,3.33
2022-08-19T08:05:03.431Z,4.40
2022-08-19T08:07:53.647Z,4.57
2022-08-19T08:10:21.607Z,3.53
2022-08-19T08:13:10.087Z,3.85
2022-08-19T08:15:42.965Z,3.35
2022-08-19T08:18:15.523Z,3.65
2022-08-19T08:20:46.440Z,3.38
2022-08-19T08:23:28.955Z,3.45
2022-08-19T08:26:00.731Z,2.95
2022-08-19T08:28:33.725Z,3.08
2022-08-19T08:31:09.482Z,4.30
2022-08-19T08:33:42.545Z,3.25
2022-08-19T08:36:13.785Z,3.43
2022-08-19T08:38:49.501Z,3.22
2022-08-19T08:41:31.187Z,3.42
2022-08-19T08:44:00.416Z,3.05
2022-08-19T08:46:45.131Z,3.63
2022-08-19T08:49:33.055Z,3.25
2022-08-19T08:52:37.054Z,3.75
2022-08-19T08:55:25.940Z,2.88
2022-08-19T08:58:07.960Z,3.40
2022-08-19T09:00:41.872Z,2.92
2022-08-19T09:03:31.624Z,3.22
2022-08-19T09:06:33.624Z,3.20
2022-08-19T09:09:19.318Z,2.92
2022-08-19T09:12:07.628Z,2.90
2022-08-19T09:15:05.961Z,2.88
2022-08-19T09:17:36.250Z,3.57
2022-08-19T09:20:22.139Z,3.00
2022-08-19T09:22:53.828Z,3.03
2022-08-19T09:25:29.671Z,2.97
2022-08-19T09:28:02.598Z,3.08
2022-08-19T09:30:43.165Z,2.45
2022-08-19T09:33:12.274Z,3.63
2022-08-19T09:35:50.217Z,3.90
2022-08-19T09:38:27.953Z,3.35
2022-08-19T09:40:59.602Z,2.70
2022-08-19T09:43:33.680Z,3.47
2022-08-19T09:46:18.003Z,2.83
2022-08-19T09:48:52.542Z,2.80
2022-08-19T09:51:32.637Z,3.00
2022-08-19T09:54:11.189Z,2.80
2022-08-19T09:56:43.522Z,3.15
2022-08-19T09:59:15.693Z,3.40
2022-08-19T10:01:44.426Z,2.72
2022-08-19T10:04:20.570Z,3.08
2022-08-19T10:06:53.539Z,2.40
2022-08-19T10:09:34.264Z,2.58
2022-08-19T10:12:11.257Z,2.53
2022-08-19T10:14:40.756Z,2.60
2022-08-19T10:17:19.238Z,3.33
2022-08-19T10:19:55.028Z,2.60
2022-08-19T10:22:27.076Z,2.30
2022-08-19T10:24:58.051Z,2.85
2022-08-19T10:27:29.490Z,2.30
2022-08-19T10:30:01.598Z,2.53
2022-08-19T10:32:34.556Z,2.70
2022-08-19T10:35:11.868Z,2.47
2022-08-19T10:37:49.834Z,2.75
2022-08-19T10:40:29.098Z,2.42
2022-08-19T10:43:01.205Z,2.50
2022-08-19T10:45:34.072Z,3.13
2022-08-19T10:48:06.920Z,3.03
2022-08-19T10:51:01.519Z,3.20
2022-08-19T10:53:31.279Z,3.97
2022-08-19T10:56:21.028Z,2.58
2022-08-19T10:58:52.771Z,2.20
2022-08-19T11:01:25.723Z,2.58
2022-08-19T11:03:57.268Z,2.95
2022-08-19T11:06:27.148Z,2.30
2022-08-19T11:08:56.525Z,2.67
2022-08-19T11:11:25.712Z,2.63
2022-08-19T11:13:59.352Z,2.70
2022-08-19T11:16:33.469Z,2.60
2022-08-19T11:19:06.603Z,2.47
2022-08-19T11:21:40.209Z,2.65
2022-08-19T11:24:14.693Z,2.72
2022-08-19T11:26:45.516Z,2.97
2022-08-19T11:29:15.972Z,2.60
2022-08-19T11:31:45.874Z,2.17
2022-08-19T11:34:19.434Z,3.08
2022-08-19T11:36:51.909Z,2.85
2022-08-19T11:39:24.488Z,2.40
2022-08-19T11:41:55.324Z,2.33
2022-08-19T11:44:24.042Z,2.60
2022-08-19T11:46:53.695Z,2.35
2022-08-19T11:49:23.547Z,2.78
2022-08-19T11:51:53.794Z,2.55
2022-08-19T11:54:23.492Z,2.65
2022-08-19T11:56:54.234Z,2.75
2022-08-19T11:59:30.819Z,2.22
2022-08-19T12:02:00.669Z,2.38
2022-08-19T12:04:32.903Z,2.55
2022-08-19T12:07:03.515Z,2.38
2022-08-19T12:09:36.523Z,2.45
2022-08-19T12:12:11.205Z,2.65
2022-08-19T12:14:43.992Z,2.40
2022-08-19T12:17:17.303Z,2.60
2022-08-19T12:19:47.906Z,3.10
2022-08-19T12:22:17.941Z,3.28
2022-08-19T12:24:47.141Z,2.58
2022-08-19T12:27:18.266Z,2.60
2022-08-19T12:30:03.748Z,2.65
2022-08-19T12:32:34.545Z,3.33
2022-08-19T12:35:05.269Z,3.42
2022-08-19T12:37:40.357Z,3.30
2022-08-19T12:40:11.999Z,3.30
2022-08-19T12:42:46.894Z,3.10
2022-08-19T12:45:19.524Z,3.15
2022-08-19T12:47:51.999Z,2.92
2022-08-19T12:50:25.608Z,3.40
2022-08-19T12:52:53.505Z,2.90
2022-08-19T12:55:24.801Z,2.45
2022-08-19T12:57:55.303Z,2.88
2022-08-19T13:00:27.309Z,2.78
2022-08-19T13:02:59.357Z,2.78
2022-08-19T13:05:33.410Z,3.00
2022-08-19T13:08:06.213Z,2.92
2022-08-19T13:10:48.410Z,3.33
2022-08-19T13:13:20.088Z,2.42
2022-08-19T13:15:49.008Z,3.00
2022-08-19T13:18:16.607Z,3.28
2022-08-19T13:20:52.501Z,2.70
2022-08-19T13:23:25.402Z,3.00
2022-08-19T13:26:10.385Z,3.25
2022-08-19T13:29:02.242Z,3.35
2022-08-19T13:31:57.252Z,2.80
2022-08-19T13:34:35.996Z,2.97
2022-08-19T13:37:05.361Z,2.92
2022-08-19T13:39:34.734Z,2.88
2022-08-19T13:42:10.010Z,3.35
2022-08-19T13:44:39.842Z,3.70
2022-08-19T13:47:11.582Z,2.95
2022-08-19T13:49:43.212Z,2.80
2022-08-19T13:52:10.390Z,2.97
2022-08-19T13:54:39.575Z,2.70
2022-08-19T13:57:07.554Z,3.08
2022-08-19T13:59:40.683Z,2.72
2022-08-19T14:02:11.854Z,2.78
2022-08-19T14:04:43.054Z,2.78
2022-08-19T14:07:11.546Z,2.72
2022-08-19T14:09:42.941Z,3.17
2022-08-19T14:12:15.912Z,2.45
2022-08-19T14:14:59.858Z,2.70
2022-08-19T14:17:32.413Z,2.97
2022-08-19T14:20:17.502Z,2.60
2022-08-19T14:22:51.748Z,3.70
2022-08-19T14:25:28.409Z,2.58
2022-08-19T14:27:59.312Z,2.75
2022-08-19T14:30:31.224Z,2.65
2022-08-19T14:33:00.554Z,3.25
2022-08-19T14:35:33.352Z,2.97
2022-08-19T14:38:06.772Z,3.23
2022-08-19T14:40:38.080Z,3.58
2022-08-19T14:43:09.709Z,3.45
2022-08-19T14:45:44.113Z,3.10
2022-08-19T14:48:19.374Z,2.25
2022-08-19T14:50:52.273Z,2.85
2022-08-19T14:53:22.093Z,2.80
2022-08-19T14:55:53.744Z,2.60
2022-08-19T14:58:28.292Z,2.63
2022-08-19T15:01:01.157Z,2.75
2022-08-19T15:03:36.614Z,3.83
2022-08-19T15:06:06.132Z,3.63
2022-08-19T15:08:40.317Z,5.45
2022-08-19T15:11:19.136Z,5.90
2022-08-19T15:13:47.742Z,5.75
2022-08-19T15:16:21.000Z,5.25
2022-08-19T15:18:56.757Z,4.85
2022-08-19T15:21:28.341Z,4.68
2022-08-19T15:23:57.853Z,5.22
2022-08-19T15:26:40.975Z,6.45
2022-08-19T15:29:11.465Z,5.10
2022-08-19T15:31:44.578Z,4.68
2022-08-19T15:34:15.755Z,4.75
2022-08-19T15:36:43.560Z,4.75
2022-08-19T15:39:14.460Z,3.83
2022-08-19T15:41:43.617Z,4.85
2022-08-19T15:44:20.488Z,4.82
2022-08-19T15:46:51.140Z,5.07
2022-08-19T15:49:22.686Z,5.18
2022-08-19T15:51:56.650Z,5.07
2022-08-19T15:54:27.982Z,4.30
2022-08-19T15:57:17.969Z,4.53
2022-08-19T16:00:06.452Z,4.15
2022-08-19T16:02:58.947Z,4.18
2022-08-19T16:05:49.976Z,4.70
2022-08-19T16:08:17.642Z,3.88
2022-08-19T16:10:46.853Z,5.35
2022-08-19T16:13:18.295Z,4.22
2022-08-19T16:15:47.257Z,4.45
2022-08-19T16:18:16.208Z,5.65
2022-08-19T16:20:49.104Z,4.82
2022-08-19T16:23:21.167Z,4.25
2022-08-19T16:25:52.002Z,5.05
2022-08-19T16:28:24.023Z,5.25
2022-08-19T16:30:54.634Z,3.90
2022-08-19T16:33:30.462Z,4.70
2022-08-19T16:36:06.891Z,4.53
2022-08-19T16:38:42.035Z,4.63
2022-08-19T16:41:12.295Z,4.60
2022-08-19T16:43:41.578Z,3.80
2022-08-19T16:46:12.664Z,4.55
2022-08-19T16:48:48.592Z,4.40
2022-08-19T16:51:18.245Z,4.70
2022-08-19T16:53:49.484Z,6.30
2022-08-19T16:56:20.420Z,5.00
2022-08-19T16:58:54.437Z,4.53
2022-08-19T17:01:23.380Z,4.38
2022-08-19T17:03:55.893Z,5.63
2022-08-19T17:06:33.655Z,3.70
2022-08-19T17:09:08.899Z,4.10
2022-08-19T17:11:39.301Z,3.25
2022-08-19T17:14:13.114Z,3.30
2022-08-19T17:16:43.475Z,3.95
2022-08-19T17:19:13.139Z,3.53
2022-08-19T17:21:40.969Z,4.28
2022-08-19T17:24:09.211Z,4.15
2022-08-19T17:26:49.956Z,3.97
2022-08-19T17:29:21.261Z,4.35
2022-08-19T17:31:52.105Z,5.05
2022-08-19T17:34:22.816Z,3.88
2022-08-19T17:36:53.980Z,3.95
2022-08-19T17:39:25.205Z,4.40
2022-08-19T17:41:56.362Z,4.70
2022-08-19T17:44:35.601Z,3.50
2022-08-19T17:47:05.177Z,3.42
2022-08-19T17:49:35.716Z,3.85
2022-08-19T17:52:10.087Z,3.63
2022-08-19T17:54:43.117Z,3.83
2022-08-19T17:57:13.350Z,3.67
2022-08-19T17:59:41.026Z,4.47
2022-08-19T18:02:14.151Z,3.72
2022-08-19T18:04:48.773Z,3.03
2022-08-19T18:07:25.754Z,4.47
2022-08-19T18:09:55.846Z,4.82
2022-08-19T18:12:39.688Z,4.78
2022-08-19T18:15:14.446Z,3.58
2022-08-19T18:17:45.268Z,4.55
2022-08-19T18:20:16.930Z,4.05
2022-08-19T18:22:47.750Z,3.72
2022-08-19T18:25:28.321Z,4.43
2022-08-19T18:28:00.589Z,4.90
2022-08-19T18:30:36.610Z,4.28
2022-08-19T18:33:16.034Z,4.63
2022-08-19T18:35:50.708Z,4.95
2022-08-19T18:41:34.553Z,5.45
2022-08-19T18:44:33.237Z,4.88
2022-08-19T18:47:20.815Z,4.03
2022-08-19T18:49:51.689Z,4.63
2022-08-19T18:52:38.132Z,4.13
2022-08-19T18:55:09.864Z,3.95
2022-08-19T18:57:37.774Z,4.28
2022-08-19T19:00:11.077Z,4.95
2022-08-19T19:02:41.318Z,5.30
2022-08-19T19:05:08.981Z,5.75
2022-08-19T19:07:43.114Z,6.25
2022-08-19T19:10:11.886Z,9.35
2022-08-19T19:12:53.104Z,5.40
2022-08-19T19:15:25.605Z,4.50
2022-08-19T19:17:59.224Z,4.72
2022-08-19T19:20:36.655Z,4.30
2022-08-19T19:23:11.329Z,4.22
2022-08-19T19:25:50.004Z,5.35
2022-08-19T19:28:31.521Z,5.82
2022-08-19T19:31:00.095Z,6.72
2022-08-19T19:33:34.789Z,6.82
2022-08-19T19:36:03.113Z,5.90
2022-08-19T19:38:32.852Z,5.03
2022-08-19T19:41:02.356Z,5.65
2022-08-19T19:43:41.021Z,5.72
2022-08-19T19:46:09.401Z,4.97
2022-08-19T19:48:41.468Z,5.30
2022-08-19T19:51:12.954Z,5.95
2022-08-19T19:53:42.341Z,4.95
2022-08-19T19:56:12.433Z,4.78
2022-08-19T19:58:40.333Z,5.53
2022-08-19T20:01:13.557Z,5.35
2022-08-19T20:03:53.298Z,5.45
2022-08-19T20:06:25.349Z,5.13
2022-08-19T20:09:16.310Z,6.30
2022-08-19T20:11:58.965Z,5.93
2022-08-19T20:14:47.605Z,5.90
2022-08-19T20:17:18.896Z,4.85
2022-08-19T20:19:50.855Z,5.55
2022-08-19T20:22:21.463Z,4.35
2022-08-19T20:24:51.174Z,4.65
2022-08-19T20:27:22.823Z,4.63
2022-08-19T20:32:29.357Z,4.78
2022-08-19T20:35:04.650Z,4.78
2022-08-19T20:40:09.055Z,5.53
2022-08-19T20:42:43.765Z,5.03
2022-08-19T20:45:32.178Z,5.47
2022-08-19T20:48:08.971Z,5.05
2022-08-19T20:50:38.235Z,5.10
2022-08-19T20:53:17.206Z,5.13
2022-08-19T20:55:50.136Z,4.60
2022-08-19T20:58:21.712Z,5.05
2022-08-19T21:00:55.199Z,4.15
2022-08-19T21:03:31.070Z,3.72
2022-08-19T21:05:59.235Z,5.13
2022-08-19T21:08:30.346Z,4.57
2022-08-19T21:11:04.789Z,4.25
2022-08-19T21:13:36.635Z,4.68
2022-08-19T21:16:09.595Z,4.20
2022-08-19T21:18:40.360Z,4.55
2022-08-19T21:21:09.601Z,4.82
2022-08-19T21:23:42.118Z,4.95
2022-08-19T21:26:10.113Z,4.70
2022-08-19T21:28:41.481Z,4.85
2022-08-19T21:31:14.100Z,4.78
2022-08-19T21:33:42.411Z,4.65
2022-08-19T21:36:14.665Z,4.47
2022-08-19T21:38:44.309Z,4.78
2022-08-19T21:41:12.111Z,4.13
2022-08-19T21:43:44.431Z,4.80
2022-08-19T21:46:13.236Z,3.65
2022-08-19T21:48:46.332Z,4.47
2022-08-19T21:51:15.926Z,4.80
2022-08-19T21:53:45.318Z,4.43
2022-08-19T21:56:19.980Z,5.07
2022-08-19T21:58:51.963Z,4.35
2022-08-19T22:01:24.967Z,4.47
2022-08-19T22:03:59.149Z,3.95
2022-08-19T22:06:28.459Z,4.70
2022-08-19T22:09:00.454Z,5.72
2022-08-19T22:11:32.078Z,5.82
2022-08-19T22:14:02.036Z,4.07
2022-08-19T22:16:37.001Z,4.00
2022-08-19T22:19:08.512Z,3.67
2022-08-19T22:21:43.240Z,3.92
2022-08-19T22:24:16.593Z,4.82
2022-08-19T22:29:33.824Z,5.28
2022-08-19T22:32:17.793Z,4.95
2022-08-19T22:35:00.843Z,4.85
2022-08-19T22:37:35.029Z,4.65
2022-08-19T22:42:41.722Z,5.25
2022-08-19T22:45:13.843Z,5.10
2022-08-19T22:47:45.350Z,4.50
2022-08-19T22:50:16.645Z,4.45
2022-08-19T22:52:51.708Z,4.30
2022-08-19T22:55:20.809Z,4.32
2022-08-19T22:57:54.970Z,3.78
2022-08-19T23:00:30.474Z,4.65
2022-08-19T23:02:59.229Z,4.03
2022-08-19T23:05:31.252Z,4.43
2022-08-19T23:08:03.690Z,4.25
2022-08-19T23:10:33.272Z,4.70
2022-08-19T23:13:05.327Z,4.95
2022-08-19T23:15:38.657Z,4.82
2022-08-19T23:18:09.143Z,4.70
2022-08-19T23:20:42.690Z,4.75
2022-08-19T23:23:11.893Z,3.67
2022-08-19T23:25:41.059Z,4.95
2022-08-19T23:28:30.557Z,4.05
2022-08-19T23:31:01.530Z,4.63
2022-08-19T23:33:51.521Z,3.95
2022-08-19T23:36:24.852Z,3.80
2022-08-19T23:38:56.619Z,4.25
2022-08-19T23:41:26.793Z,4.50
2022-08-19T23:43:56.874Z,4.47
2022-08-19T23:46:32.055Z,4.85
2022-08-19T23:49:10.345Z,4.93
2022-08-19T23:51:40.228Z,5.15
2022-08-19T23:54:09.231Z,4.85
2022-08-19T23:56:40.838Z,4.22
2022-08-19T23:59:11.609Z,4.57
